sensor_id;sensor_type;location;lat;lon;timestamp;P1;durP1;ratioP1;P2;durP2;ratioP2
22543;SDS011;11438;52.044;8.716;2024-02-26T00:01:40;2.87;;;1.80;;
22543;SDS011;11438;52.044;8.716;2024-02-26T00:04:05;3.40;;;2.00;;
22543;SDS011;11438;52.044;8.716;2024-02-26T00:06:31;3.20;;;1.80;;
22543;SDS011;11438;52.044;8.716;2024-02-26T00:08:57;3.07;;;2.03;;
22543;SDS011;11438;52.044;8.716;2024-02-26T00:11:23;3.33;;;2.27;;
22543;SDS011;11438;52.044;8.716;2024-02-26T00:13:48;4.67;;;2.00;;
22543;SDS011;11438;52.044;8.716;2024-02-26T00:16:14;3.50;;;2.30;;
22543;SDS011;11438;52.044;8.716;2024-02-26T00:18:39;4.30;;;2.60;;
22543;SDS011;11438;52.044;8.716;2024-02-26T00:21:05;7.83;;;2.90;;
22543;SDS011;11438;52.044;8.716;2024-02-26T00:23:30;6.13;;;3.10;;
22543;SDS011;11438;52.044;8.716;2024-02-26T00:25:56;6.67;;;3.17;;
22543;SDS011;11438;52.044;8.716;2024-02-26T00:28:21;3.57;;;2.30;;
22543;SDS011;11438;52.044;8.716;2024-02-26T00:30:47;3.60;;;1.80;;
22543;SDS011;11438;52.044;8.716;2024-02-26T00:33:14;4.47;;;1.90;;
22543;SDS011;11438;52.044;8.716;2024-02-26T00:35:41;3.17;;;1.90;;
22543;SDS011;11438;52.044;8.716;2024-02-26T00:38:07;2.93;;;2.10;;
22543;SDS011;11438;52.044;8.716;2024-02-26T00:40:32;2.90;;;1.90;;
22543;SDS011;11438;52.044;8.716;2024-02-26T00:42:59;2.27;;;1.70;;
22543;SDS011;11438;52.044;8.716;2024-02-26T00:45:24;2.70;;;1.90;;
22543;SDS011;11438;52.044;8.716;2024-02-26T00:47:50;2.53;;;1.80;;
22543;SDS011;11438;52.044;8.716;2024-02-26T00:50:15;2.03;;;1.60;;
22543;SDS011;11438;52.044;8.716;2024-02-26T00:52:41;3.10;;;2.07;;
22543;SDS011;11438;52.044;8.716;2024-02-26T00:55:07;4.83;;;2.00;;
22543;SDS011;11438;52.044;8.716;2024-02-26T00:57:32;2.73;;;1.87;;
22543;SDS011;11438;52.044;8.716;2024-02-26T00:59:58;2.30;;;1.70;;
22543;SDS011;11438;52.044;8.716;2024-02-26T01:02:24;2.90;;;1.80;;
22543;SDS011;11438;52.044;8.716;2024-02-26T01:04:49;3.30;;;1.90;;
22543;SDS011;11438;52.044;8.716;2024-02-26T01:07:15;2.90;;;2.00;;
22543;SDS011;11438;52.044;8.716;2024-02-26T01:09:40;2.17;;;1.70;;
22543;SDS011;11438;52.044;8.716;2024-02-26T01:12:07;2.63;;;1.70;;
22543;SDS011;11438;52.044;8.716;2024-02-26T01:14:32;2.80;;;1.63;;
22543;SDS011;11438;52.044;8.716;2024-02-26T01:16:58;2.20;;;1.73;;
22543;SDS011;11438;52.044;8.716;2024-02-26T01:19:23;2.10;;;1.70;;
22543;SDS011;11438;52.044;8.716;2024-02-26T01:21:49;2.17;;;1.63;;
22543;SDS011;11438;52.044;8.716;2024-02-26T01:24:14;2.23;;;1.70;;
22543;SDS011;11438;52.044;8.716;2024-02-26T01:26:40;2.50;;;1.80;;
22543;SDS011;11438;52.044;8.716;2024-02-26T01:29:06;2.50;;;1.90;;
22543;SDS011;11438;52.044;8.716;2024-02-26T01:31:31;2.33;;;1.93;;
22543;SDS011;11438;52.044;8.716;2024-02-26T01:33:57;2.33;;;1.77;;
22543;SDS011;11438;52.044;8.716;2024-02-26T01:36:22;2.17;;;1.70;;
22543;SDS011;11438;52.044;8.716;2024-02-26T01:38:48;2.73;;;2.00;;
22543;SDS011;11438;52.044;8.716;2024-02-26T01:41:13;2.23;;;1.73;;
22543;SDS011;11438;52.044;8.716;2024-02-26T01:43:39;2.43;;;1.80;;
22543;SDS011;11438;52.044;8.716;2024-02-26T01:46:05;2.83;;;1.80;;
22543;SDS011;11438;52.044;8.716;2024-02-26T01:48:35;3.03;;;1.57;;
22543;SDS011;11438;52.044;8.716;2024-02-26T01:51:01;2.20;;;1.60;;
22543;SDS011;11438;52.044;8.716;2024-02-26T01:53:27;2.57;;;1.97;;
22543;SDS011;11438;52.044;8.716;2024-02-26T01:55:52;2.10;;;1.67;;
22543;SDS011;11438;52.044;8.716;2024-02-26T01:58:18;3.03;;;1.97;;
22543;SDS011;11438;52.044;8.716;2024-02-26T02:00:44;2.17;;;1.37;;
22543;SDS011;11438;52.044;8.716;2024-02-26T02:03:09;1.83;;;1.40;;
22543;SDS011;11438;52.044;8.716;2024-02-26T02:05:35;2.47;;;1.70;;
22543;SDS011;11438;52.044;8.716;2024-02-26T02:08:06;2.80;;;1.80;;
22543;SDS011;11438;52.044;8.716;2024-02-26T02:10:32;1.90;;;1.43;;
22543;SDS011;11438;52.044;8.716;2024-02-26T02:12:58;2.47;;;2.00;;
22543;SDS011;11438;52.044;8.716;2024-02-26T02:15:23;2.07;;;1.57;;
22543;SDS011;11438;52.044;8.716;2024-02-26T02:17:49;2.20;;;1.70;;
22543;SDS011;11438;52.044;8.716;2024-02-26T02:20:15;3.17;;;1.80;;
22543;SDS011;11438;52.044;8.716;2024-02-26T02:22:43;2.90;;;1.70;;
22543;SDS011;11438;52.044;8.716;2024-02-26T02:25:12;1.87;;;1.60;;
22543;SDS011;11438;52.044;8.716;2024-02-26T02:27:37;2.57;;;1.53;;
22543;SDS011;11438;52.044;8.716;2024-02-26T02:30:04;3.50;;;1.80;;
22543;SDS011;11438;52.044;8.716;2024-02-26T02:32:31;2.00;;;1.40;;
22543;SDS011;11438;52.044;8.716;2024-02-26T02:34:57;2.47;;;1.77;;
22543;SDS011;11438;52.044;8.716;2024-02-26T02:37:23;2.53;;;1.50;;
22543;SDS011;11438;52.044;8.716;2024-02-26T02:39:49;3.20;;;1.90;;
22543;SDS011;11438;52.044;8.716;2024-02-26T02:42:14;2.77;;;1.80;;
22543;SDS011;11438;52.044;8.716;2024-02-26T02:44:40;3.20;;;1.93;;
22543;SDS011;11438;52.044;8.716;2024-02-26T02:47:05;2.23;;;1.60;;
22543;SDS011;11438;52.044;8.716;2024-02-26T02:49:31;4.50;;;1.60;;
22543;SDS011;11438;52.044;8.716;2024-02-26T02:51:56;2.10;;;1.63;;
22543;SDS011;11438;52.044;8.716;2024-02-26T02:54:22;2.60;;;1.80;;
22543;SDS011;11438;52.044;8.716;2024-02-26T02:56:48;2.27;;;1.60;;
22543;SDS011;11438;52.044;8.716;2024-02-26T02:59:13;3.13;;;1.53;;
22543;SDS011;11438;52.044;8.716;2024-02-26T03:01:39;2.17;;;1.70;;
22543;SDS011;11438;52.044;8.716;2024-02-26T03:04:05;2.83;;;1.70;;
22543;SDS011;11438;52.044;8.716;2024-02-26T03:06:30;4.80;;;1.63;;
22543;SDS011;11438;52.044;8.716;2024-02-26T03:08:56;2.43;;;1.70;;
22543;SDS011;11438;52.044;8.716;2024-02-26T03:11:21;2.30;;;1.57;;
22543;SDS011;11438;52.044;8.716;2024-02-26T03:13:47;3.00;;;1.50;;
22543;SDS011;11438;52.044;8.716;2024-02-26T03:16:12;2.53;;;1.70;;
22543;SDS011;11438;52.044;8.716;2024-02-26T03:18:41;2.83;;;1.80;;
22543;SDS011;11438;52.044;8.716;2024-02-26T03:21:06;2.53;;;1.43;;
22543;SDS011;11438;52.044;8.716;2024-02-26T03:23:32;1.93;;;1.60;;
22543;SDS011;11438;52.044;8.716;2024-02-26T03:26:01;2.93;;;1.63;;
22543;SDS011;11438;52.044;8.716;2024-02-26T03:28:28;4.90;;;2.33;;
22543;SDS011;11438;52.044;8.716;2024-02-26T03:30:54;3.33;;;1.97;;
22543;SDS011;11438;52.044;8.716;2024-02-26T03:33:19;2.57;;;1.53;;
22543;SDS011;11438;52.044;8.716;2024-02-26T03:35:45;3.60;;;1.40;;
22543;SDS011;11438;52.044;8.716;2024-02-26T03:38:10;2.83;;;1.37;;
22543;SDS011;11438;52.044;8.716;2024-02-26T03:40:36;1.67;;;1.33;;
22543;SDS011;11438;52.044;8.716;2024-02-26T03:43:01;1.67;;;1.40;;
22543;SDS011;11438;52.044;8.716;2024-02-26T03:45:29;2.40;;;1.40;;
22543;SDS011;11438;52.044;8.716;2024-02-26T03:47:54;2.30;;;1.70;;
22543;SDS011;11438;52.044;8.716;2024-02-26T03:50:20;2.63;;;1.70;;
22543;SDS011;11438;52.044;8.716;2024-02-26T03:52:46;3.97;;;1.30;;
22543;SDS011;11438;52.044;8.716;2024-02-26T03:55:11;1.70;;;1.20;;
22543;SDS011;11438;52.044;8.716;2024-02-26T03:57:37;1.67;;;1.30;;
22543;SDS011;11438;52.044;8.716;2024-02-26T04:00:02;1.30;;;1.10;;
22543;SDS011;11438;52.044;8.716;2024-02-26T04:02:28;1.83;;;1.23;;
22543;SDS011;11438;52.044;8.716;2024-02-26T04:04:54;1.63;;;1.30;;
22543;SDS011;11438;52.044;8.716;2024-02-26T04:07:19;3.03;;;1.20;;
22543;SDS011;11438;52.044;8.716;2024-02-26T04:09:45;1.70;;;1.10;;
22543;SDS011;11438;52.044;8.716;2024-02-26T04:12:10;1.47;;;1.10;;
22543;SDS011;11438;52.044;8.716;2024-02-26T04:14:36;1.57;;;1.00;;
22543;SDS011;11438;52.044;8.716;2024-02-26T04:17:01;1.23;;;1.00;;
22543;SDS011;11438;52.044;8.716;2024-02-26T04:19:27;1.40;;;0.83;;
22543;SDS011;11438;52.044;8.716;2024-02-26T04:21:52;1.97;;;1.10;;
22543;SDS011;11438;52.044;8.716;2024-02-26T04:24:19;1.33;;;0.70;;
22543;SDS011;11438;52.044;8.716;2024-02-26T04:26:44;6.13;;;1.20;;
22543;SDS011;11438;52.044;8.716;2024-02-26T04:29:10;2.27;;;1.23;;
22543;SDS011;11438;52.044;8.716;2024-02-26T04:31:36;1.53;;;1.20;;
22543;SDS011;11438;52.044;8.716;2024-02-26T04:34:03;1.07;;;0.90;;
22543;SDS011;11438;52.044;8.716;2024-02-26T04:36:28;5.60;;;1.60;;
22543;SDS011;11438;52.044;8.716;2024-02-26T04:38:54;1.70;;;1.00;;
22543;SDS011;11438;52.044;8.716;2024-02-26T04:41:20;2.03;;;1.03;;
22543;SDS011;11438;52.044;8.716;2024-02-26T04:43:46;1.93;;;0.90;;
22543;SDS011;11438;52.044;8.716;2024-02-26T04:46:11;1.03;;;0.90;;
22543;SDS011;11438;52.044;8.716;2024-02-26T04:48:37;1.27;;;0.83;;
22543;SDS011;11438;52.044;8.716;2024-02-26T04:51:07;1.03;;;0.80;;
22543;SDS011;11438;52.044;8.716;2024-02-26T04:53:32;2.90;;;1.20;;
22543;SDS011;11438;52.044;8.716;2024-02-26T04:55:58;1.80;;;1.10;;
22543;SDS011;11438;52.044;8.716;2024-02-26T04:58:23;2.17;;;1.07;;
22543;SDS011;11438;52.044;8.716;2024-02-26T05:00:49;1.90;;;1.47;;
22543;SDS011;11438;52.044;8.716;2024-02-26T05:03:14;1.50;;;1.07;;
22543;SDS011;11438;52.044;8.716;2024-02-26T05:05:41;2.63;;;1.10;;
22543;SDS011;11438;52.044;8.716;2024-02-26T05:08:07;1.83;;;1.40;;
22543;SDS011;11438;52.044;8.716;2024-02-26T05:10:33;4.77;;;1.30;;
22543;SDS011;11438;52.044;8.716;2024-02-26T05:12:59;2.33;;;1.53;;
22543;SDS011;11438;52.044;8.716;2024-02-26T05:15:25;3.63;;;2.23;;
22543;SDS011;11438;52.044;8.716;2024-02-26T05:17:50;3.20;;;1.90;;
22543;SDS011;11438;52.044;8.716;2024-02-26T05:20:16;3.23;;;2.20;;
22543;SDS011;11438;52.044;8.716;2024-02-26T05:22:41;3.67;;;2.00;;
22543;SDS011;11438;52.044;8.716;2024-02-26T05:25:07;2.97;;;1.97;;
22543;SDS011;11438;52.044;8.716;2024-02-26T05:27:33;2.27;;;1.80;;
22543;SDS011;11438;52.044;8.716;2024-02-26T05:29:58;2.73;;;1.97;;
22543;SDS011;11438;52.044;8.716;2024-02-26T05:32:24;2.17;;;1.67;;
22543;SDS011;11438;52.044;8.716;2024-02-26T05:34:49;3.10;;;2.03;;
22543;SDS011;11438;52.044;8.716;2024-02-26T05:37:15;2.97;;;1.60;;
22543;SDS011;11438;52.044;8.716;2024-02-26T05:39:40;2.33;;;1.60;;
22543;SDS011;11438;52.044;8.716;2024-02-26T05:42:06;3.57;;;1.50;;
22543;SDS011;11438;52.044;8.716;2024-02-26T05:44:31;2.80;;;1.40;;
22543;SDS011;11438;52.044;8.716;2024-02-26T05:46:56;1.60;;;1.30;;
22543;SDS011;11438;52.044;8.716;2024-02-26T05:49:22;1.83;;;1.37;;
22543;SDS011;11438;52.044;8.716;2024-02-26T05:51:48;1.40;;;1.10;;
22543;SDS011;11438;52.044;8.716;2024-02-26T05:54:13;1.30;;;1.10;;
22543;SDS011;11438;52.044;8.716;2024-02-26T05:56:39;4.73;;;1.00;;
22543;SDS011;11438;52.044;8.716;2024-02-26T05:59:04;1.57;;;0.97;;
22543;SDS011;11438;52.044;8.716;2024-02-26T06:01:30;1.20;;;0.77;;
22543;SDS011;11438;52.044;8.716;2024-02-26T06:03:56;1.60;;;1.00;;
22543;SDS011;11438;52.044;8.716;2024-02-26T06:06:22;1.20;;;0.87;;
22543;SDS011;11438;52.044;8.716;2024-02-26T06:08:48;1.33;;;0.90;;
22543;SDS011;11438;52.044;8.716;2024-02-26T06:11:14;2.97;;;1.20;;
22543;SDS011;11438;52.044;8.716;2024-02-26T06:13:39;3.43;;;1.10;;
22543;SDS011;11438;52.044;8.716;2024-02-26T06:16:05;3.30;;;0.83;;
22543;SDS011;11438;52.044;8.716;2024-02-26T06:18:32;2.50;;;1.20;;
22543;SDS011;11438;52.044;8.716;2024-02-26T06:20:58;1.20;;;0.83;;
22543;SDS011;11438;52.044;8.716;2024-02-26T06:23:24;3.33;;;1.05;;
22543;SDS011;11438;52.044;8.716;2024-02-26T06:25:50;1.10;;;0.90;;
22543;SDS011;11438;52.044;8.716;2024-02-26T06:28:16;1.90;;;0.90;;
22543;SDS011;11438;52.044;8.716;2024-02-26T06:30:42;1.42;;;0.93;;
22543;SDS011;11438;52.044;8.716;2024-02-26T06:33:07;1.00;;;0.77;;
22543;SDS011;11438;52.044;8.716;2024-02-26T06:35:33;1.20;;;0.90;;
22543;SDS011;11438;52.044;8.716;2024-02-26T06:37:58;1.40;;;0.93;;
22543;SDS011;11438;52.044;8.716;2024-02-26T06:40:24;2.50;;;1.20;;
22543;SDS011;11438;52.044;8.716;2024-02-26T06:42:50;1.67;;;0.90;;
22543;SDS011;11438;52.044;8.716;2024-02-26T06:45:16;1.50;;;1.10;;
22543;SDS011;11438;52.044;8.716;2024-02-26T06:47:42;1.83;;;1.03;;
22543;SDS011;11438;52.044;8.716;2024-02-26T06:50:08;1.53;;;1.00;;
22543;SDS011;11438;52.044;8.716;2024-02-26T06:52:34;1.23;;;0.98;;
22543;SDS011;11438;52.044;8.716;2024-02-26T06:54:59;1.63;;;1.00;;
22543;SDS011;11438;52.044;8.716;2024-02-26T06:57:25;2.97;;;1.10;;
22543;SDS011;11438;52.044;8.716;2024-02-26T06:59:50;2.13;;;1.10;;
22543;SDS011;11438;52.044;8.716;2024-02-26T07:02:17;1.77;;;1.00;;
22543;SDS011;11438;52.044;8.716;2024-02-26T07:04:43;1.45;;;0.90;;
22543;SDS011;11438;52.044;8.716;2024-02-26T07:07:08;2.17;;;0.90;;
22543;SDS011;11438;52.044;8.716;2024-02-26T07:09:34;1.50;;;1.20;;
22543;SDS011;11438;52.044;8.716;2024-02-26T07:12:00;3.53;;;1.00;;
22543;SDS011;11438;52.044;8.716;2024-02-26T07:14:25;1.70;;;1.07;;
22543;SDS011;11438;52.044;8.716;2024-02-26T07:16:51;2.67;;;1.23;;
22543;SDS011;11438;52.044;8.716;2024-02-26T07:19:16;1.23;;;1.10;;
22543;SDS011;11438;52.044;8.716;2024-02-26T07:21:42;2.63;;;1.20;;
22543;SDS011;11438;52.044;8.716;2024-02-26T07:24:07;1.52;;;0.90;;
22543;SDS011;11438;52.044;8.716;2024-02-26T07:26:33;1.80;;;0.90;;
22543;SDS011;11438;52.044;8.716;2024-02-26T07:28:59;1.52;;;0.80;;
22543;SDS011;11438;52.044;8.716;2024-02-26T07:31:25;1.23;;;0.90;;
22543;SDS011;11438;52.044;8.716;2024-02-26T07:33:51;1.38;;;0.82;;
22543;SDS011;11438;52.044;8.716;2024-02-26T07:36:16;2.08;;;1.00;;
22543;SDS011;11438;52.044;8.716;2024-02-26T07:38:42;1.73;;;0.95;;
22543;SDS011;11438;52.044;8.716;2024-02-26T07:41:07;1.55;;;1.00;;
22543;SDS011;11438;52.044;8.716;2024-02-26T07:43:33;2.33;;;1.20;;
22543;SDS011;11438;52.044;8.716;2024-02-26T07:45:59;2.37;;;1.17;;
22543;SDS011;11438;52.044;8.716;2024-02-26T07:48:24;1.95;;;1.13;;
22543;SDS011;11438;52.044;8.716;2024-02-26T07:50:50;2.55;;;1.52;;
22543;SDS011;11438;52.044;8.716;2024-02-26T07:53:15;1.83;;;1.13;;
22543;SDS011;11438;52.044;8.716;2024-02-26T07:55:41;3.25;;;1.60;;
22543;SDS011;11438;52.044;8.716;2024-02-26T07:58:06;3.30;;;1.92;;
22543;SDS011;11438;52.044;8.716;2024-02-26T08:00:32;2.42;;;1.50;;
22543;SDS011;11438;52.044;8.716;2024-02-26T08:02:57;2.23;;;1.50;;
22543;SDS011;11438;52.044;8.716;2024-02-26T08:05:23;3.08;;;1.92;;
22543;SDS011;11438;52.044;8.716;2024-02-26T08:07:49;3.08;;;1.75;;
22543;SDS011;11438;52.044;8.716;2024-02-26T08:10:15;2.83;;;1.85;;
22543;SDS011;11438;52.044;8.716;2024-02-26T08:12:40;4.90;;;1.90;;
22543;SDS011;11438;52.044;8.716;2024-02-26T08:15:07;3.28;;;1.90;;
22543;SDS011;11438;52.044;8.716;2024-02-26T08:17:33;4.10;;;2.67;;
22543;SDS011;11438;52.044;8.716;2024-02-26T08:19:59;6.20;;;3.47;;
22543;SDS011;11438;52.044;8.716;2024-02-26T08:22:25;4.30;;;3.03;;
22543;SDS011;11438;52.044;8.716;2024-02-26T08:24:50;5.47;;;2.88;;
22543;SDS011;11438;52.044;8.716;2024-02-26T08:27:16;5.10;;;3.13;;
22543;SDS011;11438;52.044;8.716;2024-02-26T08:29:42;4.85;;;2.72;;
22543;SDS011;11438;52.044;8.716;2024-02-26T08:32:08;5.13;;;3.20;;
22543;SDS011;11438;52.044;8.716;2024-02-26T08:34:33;4.50;;;3.00;;
22543;SDS011;11438;52.044;8.716;2024-02-26T08:36:59;4.10;;;2.70;;
22543;SDS011;11438;52.044;8.716;2024-02-26T08:39:24;5.03;;;2.90;;
22543;SDS011;11438;52.044;8.716;2024-02-26T08:41:50;5.40;;;3.20;;
22543;SDS011;11438;52.044;8.716;2024-02-26T08:44:16;4.93;;;3.15;;
22543;SDS011;11438;52.044;8.716;2024-02-26T08:46:42;5.20;;;2.95;;
22543;SDS011;11438;52.044;8.716;2024-02-26T08:49:07;6.57;;;3.17;;
22543;SDS011;11438;52.044;8.716;2024-02-26T08:51:33;5.70;;;3.65;;
22543;SDS011;11438;52.044;8.716;2024-02-26T08:53:58;5.13;;;3.28;;
22543;SDS011;11438;52.044;8.716;2024-02-26T08:56:24;6.18;;;3.70;;
22543;SDS011;11438;52.044;8.716;2024-02-26T08:58:49;5.97;;;3.83;;
22543;SDS011;11438;52.044;8.716;2024-02-26T09:01:18;5.50;;;3.42;;
22543;SDS011;11438;52.044;8.716;2024-02-26T09:03:44;6.25;;;3.47;;
22543;SDS011;11438;52.044;8.716;2024-02-26T09:06:09;5.53;;;3.92;;
22543;SDS011;11438;52.044;8.716;2024-02-26T09:08:36;5.85;;;3.33;;
22543;SDS011;11438;52.044;8.716;2024-02-26T09:11:02;5.80;;;3.53;;
22543;SDS011;11438;52.044;8.716;2024-02-26T09:13:28;4.32;;;2.90;;
22543;SDS011;11438;52.044;8.716;2024-02-26T09:15:54;5.75;;;3.40;;
22543;SDS011;11438;52.044;8.716;2024-02-26T09:18:19;4.60;;;3.13;;
22543;SDS011;11438;52.044;8.716;2024-02-26T09:20:45;6.13;;;2.92;;
22543;SDS011;11438;52.044;8.716;2024-02-26T09:23:10;4.90;;;3.08;;
22543;SDS011;11438;52.044;8.716;2024-02-26T09:25:36;5.82;;;3.45;;
22543;SDS011;11438;52.044;8.716;2024-02-26T09:28:01;3.97;;;2.58;;
22543;SDS011;11438;52.044;8.716;2024-02-26T09:30:28;3.65;;;2.50;;
22543;SDS011;11438;52.044;8.716;2024-02-26T09:32:53;4.07;;;2.60;;
22543;SDS011;11438;52.044;8.716;2024-02-26T09:35:19;4.40;;;2.63;;
22543;SDS011;11438;52.044;8.716;2024-02-26T09:37:46;4.00;;;2.45;;
22543;SDS011;11438;52.044;8.716;2024-02-26T09:40:11;4.15;;;2.65;;
22543;SDS011;11438;52.044;8.716;2024-02-26T09:42:37;4.20;;;2.88;;
22543;SDS011;11438;52.044;8.716;2024-02-26T09:45:10;2.85;;;2.28;;
22543;SDS011;11438;52.044;8.716;2024-02-26T09:47:42;4.43;;;2.38;;
22543;SDS011;11438;52.044;8.716;2024-02-26T09:50:07;3.35;;;2.30;;
22543;SDS011;11438;52.044;8.716;2024-02-26T09:52:34;5.68;;;2.75;;
22543;SDS011;11438;52.044;8.716;2024-02-26T09:55:02;3.17;;;2.35;;
22543;SDS011;11438;52.044;8.716;2024-02-26T09:57:29;4.43;;;2.17;;
22543;SDS011;11438;52.044;8.716;2024-02-26T09:59:55;4.05;;;2.22;;
22543;SDS011;11438;52.044;8.716;2024-02-26T10:02:26;4.72;;;2.53;;
22543;SDS011;11438;52.044;8.716;2024-02-26T10:04:53;3.90;;;2.70;;
22543;SDS011;11438;52.044;8.716;2024-02-26T10:07:21;4.82;;;3.10;;
22543;SDS011;11438;52.044;8.716;2024-02-26T10:09:47;3.90;;;2.60;;
22543;SDS011;11438;52.044;8.716;2024-02-26T10:12:13;4.32;;;2.60;;
22543;SDS011;11438;52.044;8.716;2024-02-26T10:14:41;3.58;;;2.40;;
22543;SDS011;11438;52.044;8.716;2024-02-26T10:17:07;5.10;;;2.15;;
22543;SDS011;11438;52.044;8.716;2024-02-26T10:19:33;3.17;;;2.15;;
22543;SDS011;11438;52.044;8.716;2024-02-26T10:21:59;4.13;;;2.22;;
22543;SDS011;11438;52.044;8.716;2024-02-26T10:24:26;3.28;;;2.22;;
22543;SDS011;11438;52.044;8.716;2024-02-26T10:26:52;3.28;;;2.17;;
22543;SDS011;11438;52.044;8.716;2024-02-26T10:29:20;3.83;;;2.40;;
22543;SDS011;11438;52.044;8.716;2024-02-26T10:31:46;3.42;;;2.10;;
22543;SDS011;11438;52.044;8.716;2024-02-26T10:34:12;5.18;;;2.30;;
22543;SDS011;11438;52.044;8.716;2024-02-26T10:36:39;5.65;;;2.22;;
22543;SDS011;11438;52.044;8.716;2024-02-26T10:39:08;3.72;;;2.25;;
22543;SDS011;11438;52.044;8.716;2024-02-26T10:41:34;3.38;;;2.40;;
22543;SDS011;11438;52.044;8.716;2024-02-26T10:44:00;3.13;;;2.42;;
22543;SDS011;11438;52.044;8.716;2024-02-26T10:46:25;4.63;;;2.45;;
22543;SDS011;11438;52.044;8.716;2024-02-26T10:48:52;4.07;;;2.08;;
22543;SDS011;11438;52.044;8.716;2024-02-26T10:51:27;4.05;;;2.50;;
22543;SDS011;11438;52.044;8.716;2024-02-26T10:53:57;3.55;;;2.50;;
22543;SDS011;11438;52.044;8.716;2024-02-26T10:56:26;4.13;;;2.42;;
22543;SDS011;11438;52.044;8.716;2024-02-26T10:58:53;4.35;;;2.65;;
22543;SDS011;11438;52.044;8.716;2024-02-26T11:01:20;3.67;;;2.30;;
22543;SDS011;11438;52.044;8.716;2024-02-26T11:03:51;4.55;;;2.75;;
22543;SDS011;11438;52.044;8.716;2024-02-26T11:06:18;5.57;;;3.20;;
22543;SDS011;11438;52.044;8.716;2024-02-26T11:08:52;5.13;;;2.72;;
22543;SDS011;11438;52.044;8.716;2024-02-26T11:11:19;7.70;;;2.83;;
22543;SDS011;11438;52.044;8.716;2024-02-26T11:13:48;5.60;;;3.15;;
22543;SDS011;11438;52.044;8.716;2024-02-26T11:16:18;9.18;;;3.60;;
22543;SDS011;11438;52.044;8.716;2024-02-26T11:18:46;6.17;;;4.13;;
22543;SDS011;11438;52.044;8.716;2024-02-26T11:21:15;6.20;;;3.90;;
22543;SDS011;11438;52.044;8.716;2024-02-26T11:23:43;6.07;;;3.83;;
22543;SDS011;11438;52.044;8.716;2024-02-26T11:26:10;7.05;;;4.40;;
22543;SDS011;11438;52.044;8.716;2024-02-26T11:28:37;8.65;;;4.13;;
22543;SDS011;11438;52.044;8.716;2024-02-26T11:31:04;6.00;;;4.40;;
22543;SDS011;11438;52.044;8.716;2024-02-26T11:33:32;7.82;;;4.38;;
22543;SDS011;11438;52.044;8.716;2024-02-26T11:36:00;6.80;;;4.32;;
22543;SDS011;11438;52.044;8.716;2024-02-26T11:38:27;9.93;;;4.30;;
22543;SDS011;11438;52.044;8.716;2024-02-26T11:40:53;8.80;;;4.70;;
22543;SDS011;11438;52.044;8.716;2024-02-26T11:46:29;7.53;;;4.32;;
22543;SDS011;11438;52.044;8.716;2024-02-26T11:48:59;5.90;;;4.03;;
22543;SDS011;11438;52.044;8.716;2024-02-26T11:51:27;6.20;;;3.80;;
22543;SDS011;11438;52.044;8.716;2024-02-26T11:53:56;6.65;;;4.15;;
22543;SDS011;11438;52.044;8.716;2024-02-26T11:56:23;5.38;;;3.40;;
22543;SDS011;11438;52.044;8.716;2024-02-26T11:58:58;5.32;;;3.55;;
22543;SDS011;11438;52.044;8.716;2024-02-26T12:01:40;6.82;;;3.67;;
22543;SDS011;11438;52.044;8.716;2024-02-26T12:04:21;7.35;;;3.78;;
22543;SDS011;11438;52.044;8.716;2024-02-26T12:06:51;6.38;;;3.83;;
22543;SDS011;11438;52.044;8.716;2024-02-26T12:09:31;5.47;;;3.47;;
22543;SDS011;11438;52.044;8.716;2024-02-26T12:12:08;5.18;;;3.25;;
22543;SDS011;11438;52.044;8.716;2024-02-26T12:14:37;4.70;;;3.08;;
22543;SDS011;11438;52.044;8.716;2024-02-26T12:17:23;5.25;;;3.10;;
22543;SDS011;11438;52.044;8.716;2024-02-26T12:19:50;5.03;;;3.15;;
22543;SDS011;11438;52.044;8.716;2024-02-26T12:22:18;4.93;;;3.03;;
22543;SDS011;11438;52.044;8.716;2024-02-26T12:24:44;4.88;;;2.97;;
22543;SDS011;11438;52.044;8.716;2024-02-26T12:27:09;7.20;;;3.72;;
22543;SDS011;11438;52.044;8.716;2024-02-26T12:29:35;6.28;;;3.83;;
22543;SDS011;11438;52.044;8.716;2024-02-26T12:32:01;5.10;;;3.42;;
22543;SDS011;11438;52.044;8.716;2024-02-26T12:34:28;6.53;;;3.50;;
22543;SDS011;11438;52.044;8.716;2024-02-26T12:36:53;5.03;;;3.10;;
22543;SDS011;11438;52.044;8.716;2024-02-26T12:39:19;4.28;;;2.58;;
22543;SDS011;11438;52.044;8.716;2024-02-26T12:41:45;5.60;;;2.80;;
22543;SDS011;11438;52.044;8.716;2024-02-26T12:44:15;4.22;;;3.05;;
22543;SDS011;11438;52.044;8.716;2024-02-26T12:46:43;4.97;;;2.58;;
22543;SDS011;11438;52.044;8.716;2024-02-26T12:49:09;3.97;;;2.30;;
22543;SDS011;11438;52.044;8.716;2024-02-26T12:51:40;4.10;;;2.50;;
22543;SDS011;11438;52.044;8.716;2024-02-26T12:54:06;4.10;;;2.92;;
22543;SDS011;11438;52.044;8.716;2024-02-26T12:56:33;5.50;;;2.40;;
22543;SDS011;11438;52.044;8.716;2024-02-26T12:58:59;3.20;;;2.17;;
22543;SDS011;11438;52.044;8.716;2024-02-26T13:01:25;3.58;;;2.40;;
22543;SDS011;11438;52.044;8.716;2024-02-26T13:03:52;3.28;;;2.35;;
22543;SDS011;11438;52.044;8.716;2024-02-26T13:06:18;2.97;;;2.10;;
22543;SDS011;11438;52.044;8.716;2024-02-26T13:08:46;4.60;;;2.20;;
22543;SDS011;11438;52.044;8.716;2024-02-26T13:11:12;4.22;;;2.20;;
22543;SDS011;11438;52.044;8.716;2024-02-26T13:13:38;3.65;;;1.98;;
22543;SDS011;11438;52.044;8.716;2024-02-26T13:16:10;4.28;;;2.30;;
22543;SDS011;11438;52.044;8.716;2024-02-26T13:18:39;2.92;;;1.98;;
22543;SDS011;11438;52.044;8.716;2024-02-26T13:21:08;3.55;;;2.10;;
22543;SDS011;11438;52.044;8.716;2024-02-26T13:23:41;3.42;;;1.83;;
22543;SDS011;11438;52.044;8.716;2024-02-26T13:26:08;3.13;;;2.08;;
22543;SDS011;11438;52.044;8.716;2024-02-26T13:28:34;2.75;;;1.90;;
22543;SDS011;11438;52.044;8.716;2024-02-26T13:31:00;3.10;;;2.10;;
22543;SDS011;11438;52.044;8.716;2024-02-26T13:33:28;4.20;;;2.10;;
22543;SDS011;11438;52.044;8.716;2024-02-26T13:35:54;2.45;;;1.73;;
22543;SDS011;11438;52.044;8.716;2024-02-26T13:38:21;2.08;;;1.55;;
22543;SDS011;11438;52.044;8.716;2024-02-26T13:40:47;3.13;;;1.90;;
22543;SDS011;11438;52.044;8.716;2024-02-26T13:43:13;2.90;;;1.98;;
22543;SDS011;11438;52.044;8.716;2024-02-26T13:45:38;2.92;;;1.70;;
22543;SDS011;11438;52.044;8.716;2024-02-26T13:48:05;2.90;;;1.90;;
22543;SDS011;11438;52.044;8.716;2024-02-26T13:50:32;2.45;;;1.67;;
22543;SDS011;11438;52.044;8.716;2024-02-26T13:52:57;1.98;;;1.55;;
22543;SDS011;11438;52.044;8.716;2024-02-26T13:55:25;3.17;;;2.20;;
22543;SDS011;11438;52.044;8.716;2024-02-26T13:57:53;3.13;;;2.05;;
22543;SDS011;11438;52.044;8.716;2024-02-26T14:00:19;2.55;;;1.98;;
22543;SDS011;11438;52.044;8.716;2024-02-26T14:02:45;3.67;;;1.80;;
22543;SDS011;11438;52.044;8.716;2024-02-26T14:05:10;3.92;;;1.90;;
22543;SDS011;11438;52.044;8.716;2024-02-26T14:07:36;4.88;;;2.10;;
22543;SDS011;11438;52.044;8.716;2024-02-26T14:10:01;3.60;;;2.10;;
22543;SDS011;11438;52.044;8.716;2024-02-26T14:12:27;3.63;;;2.20;;
22543;SDS011;11438;52.044;8.716;2024-02-26T14:14:53;3.85;;;2.30;;
22543;SDS011;11438;52.044;8.716;2024-02-26T14:17:20;3.13;;;2.08;;
22543;SDS011;11438;52.044;8.716;2024-02-26T14:19:46;2.97;;;1.98;;
22543;SDS011;11438;52.044;8.716;2024-02-26T14:22:13;3.00;;;1.88;;
22543;SDS011;11438;52.044;8.716;2024-02-26T14:24:39;3.60;;;2.13;;
22543;SDS011;11438;52.044;8.716;2024-02-26T14:27:05;2.92;;;2.15;;
22543;SDS011;11438;52.044;8.716;2024-02-26T14:29:32;2.92;;;1.98;;
22543;SDS011;11438;52.044;8.716;2024-02-26T14:31:58;2.78;;;2.03;;
22543;SDS011;11438;52.044;8.716;2024-02-26T14:34:23;4.25;;;2.45;;
22543;SDS011;11438;52.044;8.716;2024-02-26T14:36:49;4.22;;;2.42;;
22543;SDS011;11438;52.044;8.716;2024-02-26T14:39:14;4.38;;;2.35;;
22543;SDS011;11438;52.044;8.716;2024-02-26T14:41:40;3.10;;;2.10;;
22543;SDS011;11438;52.044;8.716;2024-02-26T14:44:05;2.83;;;2.05;;
22543;SDS011;11438;52.044;8.716;2024-02-26T14:46:31;3.75;;;2.40;;